CZ-0113 weather

Katovice Airstrip
Czechia

Public forecast

Using degrees Celsius for public forecast. Weather courtesy of forecast.io.

METAR (pilot weather report)

Closest report is Plzeň-Líně Airport, 31.9 nm (59.1 km) NW. Retrieved 2019/08/24 08:00 UTC (53 minutes ago):

LKLN 240800Z AUTO 03003KT 320V090 9999 OVC039 20/16 Q1023

TAF (pilot weather forecast)

Closest forecast is Václav Havel Airport Prague, 53.1 nm (98.3 km) NNE. Retrieved 2019/08/24 06:16 UTC (3 hours ago):

TAF LKPR 240500Z 2406/2512 36004KT CAVOK BECMG 2406/2409 05008KT TEMPO 2412/2500 9999 SCT045